Time;durP1;ratioP1;P1;durP2;ratioP2;P2;SDS_P1;SDS_P2;PMS_P1;PMS_P2;Temp;Humidity;BMP_temperature;BMP_pressure;BME280_temperature;BME280_humidity;BME280_pressure;Samples;Min_cycle;Max_cycle;Signal;HPM_P1;HPM_P2
2023/06/20 00:01:19;;;;;;;6.15;5.35;;;22.30;95.00;;;;;;5024895;28;20026;-76
2023/06/20 00:03:45;;;;;;;7.05;5.32;;;22.40;95.00;;;;;;5029071;28;20022;-77
2023/06/20 00:06:11;;;;;;;7.70;4.97;;;22.40;95.10;;;;;;5027234;28;20033;-76
2023/06/20 00:08:36;;;;;;;5.60;4.97;;;22.40;95.30;;;;;;5028510;28;20033;-77
2023/06/20 00:11:02;;;;;;;5.90;4.40;;;22.40;95.30;;;;;;5031160;28;20077;-77
2023/06/20 00:13:28;;;;;;;6.65;4.97;;;22.40;95.00;;;;;;5026602;28;20025;-76
2023/06/20 00:15:57;;;;;;;7.32;5.00;;;22.40;95.20;;;;;;5028031;28;20667;-76
2023/06/20 00:18:23;;;;;;;6.95;5.50;;;22.40;95.10;;;;;;5009467;28;20052;-78
2023/06/20 00:20:49;;;;;;;6.95;5.00;;;22.40;95.40;;;;;;5034581;28;20232;-77
2023/06/20 00:23:16;;;;;;;6.60;4.95;;;22.40;95.70;;;;;;5010607;28;20439;-76
2023/06/20 00:25:41;;;;;;;5.55;4.55;;;22.40;95.40;;;;;;5013987;28;20022;-75
2023/06/20 00:28:08;;;;;;;7.00;4.65;;;22.40;95.40;;;;;;5030472;28;20029;-77
2023/06/20 00:30:34;;;;;;;7.30;4.00;;;22.40;96.30;;;;;;5028922;28;20069;-76
2023/06/20 00:32:59;;;;;;;8.23;4.97;;;22.20;97.60;;;;;;5021282;28;20436;-78
2023/06/20 00:35:25;;;;;;;5.93;4.72;;;22.00;99.30;;;;;;5033228;28;20021;-77
2023/06/20 00:37:51;;;;;;;5.75;4.50;;;21.80;99.90;;;;;;5014013;28;20044;-76
2023/06/20 00:40:17;;;;;;;7.57;5.05;;;21.60;99.90;;;;;;5030304;28;20372;-77
2023/06/20 00:42:43;;;;;;;8.88;5.63;;;21.40;99.90;;;;;;5029748;28;20033;-76
2023/06/20 00:45:32;;;;;;;9.27;5.70;;;21.30;99.90;;;;;;5029422;28;20563;-76
2023/06/20 00:48:00;;;;;;;7.93;5.50;;;21.20;99.90;;;;;;5028720;28;20037;-76
2023/06/20 00:50:28;;;;;;;9.90;5.03;;;21.20;99.90;;;;;;5029602;28;20025;-75
2023/06/20 00:53:05;;;;;;;7.50;5.63;;;21.00;99.90;;;;;;5026097;28;20028;-77
2023/06/20 00:55:33;;;;;;;7.32;5.15;;;20.90;99.90;;;;;;5011224;28;20057;-77
2023/06/20 00:58:00;;;;;;;7.82;5.78;;;20.90;99.90;;;;;;5026615;28;20178;-76
2023/06/20 01:00:27;;;;;;;7.93;5.28;;;20.90;99.90;;;;;;5025704;28;20032;-77
2023/06/20 01:02:57;;;;;;;8.35;5.43;;;20.80;99.90;;;;;;5029250;28;20029;-76
2023/06/20 01:05:27;;;;;;;10.95;6.20;;;20.80;99.90;;;;;;5006718;28;20037;-76
2023/06/20 01:08:22;;;;;;;10.00;5.90;;;20.70;99.90;;;;;;5024323;28;20095;-76
2023/06/20 01:11:03;;;;;;;9.30;5.55;;;20.70;99.90;;;;;;4994267;28;20045;-75
2023/06/20 01:13:48;;;;;;;11.60;5.60;;;20.70;99.90;;;;;;5020032;28;20041;-76
2023/06/20 01:17:21;;;;;;;12.77;5.80;;;20.70;99.90;;;;;;5026213;28;20152;-76
2023/06/20 01:20:21;;;;;;;6.85;4.70;;;20.70;99.90;;;;;;4984328;28;20513;-76
2023/06/20 01:22:57;;;;;;;10.43;6.22;;;20.70;99.90;;;;;;4981051;28;20035;-75
2023/06/20 01:25:51;;;;;;;11.95;6.70;;;20.70;99.90;;;;;;5017720;28;20033;-76
2023/06/20 01:28:28;;;;;;;6.22;4.53;;;20.60;99.90;;;;;;4944484;28;20043;-76
2023/06/20 01:30:57;;;;;;;6.47;3.92;;;20.70;99.90;;;;;;5015715;28;20201;-77
2023/06/20 01:33:34;;;;;;;9.20;4.70;;;20.70;99.90;;;;;;5021779;28;20045;-78
2023/06/20 01:36:01;;;;;;;8.70;4.28;;;20.70;99.90;;;;;;5005821;28;20050;-77
2023/06/20 01:38:30;;;;;;;6.78;4.50;;;20.60;99.90;;;;;;5023890;28;20057;-76
2023/06/20 01:40:58;;;;;;;5.55;3.63;;;20.60;99.90;;;;;;5029289;28;20111;-78
2023/06/20 01:43:28;;;;;;;8.10;3.95;;;20.60;99.90;;;;;;5052525;22;20513;-73
2023/06/20 01:45:55;;;;;;;7.45;4.43;;;20.50;99.90;;;;;;5042855;28;20048;-73
2023/06/20 01:48:23;;;;;;;7.82;3.92;;;20.50;99.90;;;;;;5029643;28;20491;-73
2023/06/20 01:50:52;;;;;;;6.47;3.72;;;20.50;99.90;;;;;;5029888;28;20021;-72
2023/06/20 01:53:20;;;;;;;5.20;3.40;;;20.40;99.90;;;;;;5045817;28;20028;-73
2023/06/20 01:55:47;;;;;;;12.50;3.47;;;20.40;99.90;;;;;;5048444;28;20021;-73
2023/06/20 01:58:14;;;;;;;6.10;2.65;;;20.40;99.90;;;;;;5055026;28;20025;-74
2023/06/20 02:00:40;;;;;;;6.68;3.05;;;20.30;99.90;;;;;;5044424;28;20056;-73
2023/06/20 02:03:09;;;;;;;4.28;2.63;;;20.30;99.90;;;;;;5042958;28;20503;-73
2023/06/20 02:05:36;;;;;;;4.88;2.78;;;20.30;99.90;;;;;;5046287;28;20021;-73
2023/06/20 02:08:03;;;;;;;6.07;3.25;;;20.20;99.90;;;;;;5046656;28;20021;-74
2023/06/20 02:10:29;;;;;;;6.80;2.88;;;20.20;99.90;;;;;;5039775;28;20029;-74
2023/06/20 02:12:56;;;;;;;5.35;3.00;;;20.20;99.90;;;;;;5048084;28;20104;-74
2023/06/20 02:15:24;;;;;;;5.20;3.30;;;20.20;99.90;;;;;;5032462;28;20025;-74
2023/06/20 02:17:49;;;;;;;6.85;2.78;;;20.30;99.90;;;;;;5045613;28;20028;-74
2023/06/20 02:20:15;;;;;;;3.40;2.25;;;20.20;99.90;;;;;;5056320;28;20044;-73
2023/06/20 02:22:45;;;;;;;3.65;2.13;;;20.20;99.90;;;;;;5036797;28;20071;-74
2023/06/20 02:25:16;;;;;;;3.97;2.00;;;20.20;99.90;;;;;;5046897;28;20027;-73
2023/06/20 02:27:42;;;;;;;3.17;1.90;;;20.20;99.90;;;;;;5030526;28;20044;-74
2023/06/20 02:30:10;;;;;;;2.30;1.45;;;20.20;99.90;;;;;;5046901;28;20491;-74
2023/06/20 02:32:39;;;;;;;3.72;2.13;;;20.20;99.90;;;;;;5050307;28;20041;-74
2023/06/20 02:35:07;;;;;;;3.65;2.10;;;20.20;99.90;;;;;;5030549;28;20035;-74
2023/06/20 02:37:34;;;;;;;3.17;2.15;;;20.20;99.90;;;;;;5037319;28;20120;-74
2023/06/20 02:39:59;;;;;;;4.35;1.92;;;20.10;99.90;;;;;;5050358;28;20497;-73
2023/06/20 02:42:25;;;;;;;2.10;1.73;;;20.10;99.90;;;;;;5031400;28;20100;-74
2023/06/20 02:44:51;;;;;;;6.75;2.47;;;20.10;99.90;;;;;;5034756;28;20021;-73
2023/06/20 02:47:42;;;;;;;2.45;1.73;;;20.10;99.90;;;;;;5053225;28;20079;-73
2023/06/20 02:50:31;;;;;;;4.15;2.33;;;20.10;99.90;;;;;;5050242;28;20017;-73
2023/06/20 02:53:29;;;;;;;4.07;2.45;;;20.10;99.90;;;;;;5043036;28;20031;-72
2023/06/20 02:56:06;;;;;;;3.60;2.22;;;20.10;99.90;;;;;;5053205;28;20160;-73
2023/06/20 02:58:34;;;;;;;4.90;2.20;;;20.10;99.90;;;;;;5051201;28;20033;-73
2023/06/20 03:01:01;;;;;;;3.35;2.58;;;20.10;99.90;;;;;;5048750;28;20444;-73
2023/06/20 03:03:36;;;;;;;5.68;2.17;;;20.00;99.90;;;;;;5047193;28;20043;-75
2023/06/20 03:06:06;;;;;;;3.15;2.00;;;20.00;99.90;;;;;;5056472;28;20021;-75
2023/06/20 03:08:33;;;;;;;4.78;1.80;;;20.00;99.90;;;;;;5056306;28;20029;-75
2023/06/20 03:11:00;;;;;;;4.03;2.33;;;20.00;99.90;;;;;;5039226;28;20071;-75
2023/06/20 03:13:27;;;;;;;4.43;1.90;;;20.00;99.90;;;;;;5052939;28;20039;-74
2023/06/20 03:15:54;;;;;;;2.53;1.90;;;20.00;99.90;;;;;;5032765;28;20301;-75
2023/06/20 03:18:20;;;;;;;2.05;1.65;;;20.00;99.90;;;;;;5051804;28;20712;-76
2023/06/20 03:20:48;;;;;;;4.90;1.67;;;20.00;99.90;;;;;;5056302;28;20063;-74
2023/06/20 03:23:14;;;;;;;3.75;1.52;;;20.00;99.90;;;;;;5048323;28;20451;-73
2023/06/20 03:25:40;;;;;;;3.45;2.00;;;20.00;99.90;;;;;;5047883;28;20506;-74
2023/06/20 03:28:06;;;;;;;4.45;1.65;;;20.00;99.90;;;;;;5033996;28;20032;-74
2023/06/20 03:30:32;;;;;;;2.20;1.33;;;19.90;99.90;;;;;;5034330;28;20029;-73
2023/06/20 03:32:57;;;;;;;2.47;1.33;;;19.90;99.90;;;;;;5030549;28;20490;-73
2023/06/20 03:35:23;;;;;;;4.57;1.58;;;19.90;99.90;;;;;;5033391;28;20110;-73
2023/06/20 03:37:49;;;;;;;7.05;1.88;;;19.90;99.90;;;;;;5029210;28;20356;-73
2023/06/20 03:40:14;;;;;;;2.17;1.10;;;19.90;99.90;;;;;;5027930;28;20057;-73
2023/06/20 03:42:41;;;;;;;2.70;1.40;;;19.90;99.90;;;;;;5052786;28;20037;-74
2023/06/20 03:45:07;;;;;;;5.78;1.92;;;19.90;99.90;;;;;;5049914;28;20108;-74
2023/06/20 03:47:33;;;;;;;4.03;1.85;;;19.80;99.90;;;;;;5029540;28;20137;-73
2023/06/20 03:49:59;;;;;;;1.73;1.40;;;19.90;99.90;;;;;;5050172;28;20656;-73
2023/06/20 03:52:24;;;;;;;5.00;1.50;;;19.80;99.90;;;;;;5049587;28;20120;-73
2023/06/20 03:54:50;;;;;;;5.65;1.65;;;19.90;99.90;;;;;;5040153;28;20392;-74
2023/06/20 03:57:16;;;;;;;4.57;1.90;;;19.80;99.90;;;;;;5050587;28;20146;-73
2023/06/20 03:59:41;;;;;;;4.43;1.95;;;19.90;99.90;;;;;;5053102;28;20091;-74
2023/06/20 04:02:07;;;;;;;3.22;1.95;;;19.80;99.90;;;;;;5054054;28;20097;-73
2023/06/20 04:04:33;;;;;;;3.05;1.88;;;19.80;99.90;;;;;;5051374;28;20017;-73
2023/06/20 04:06:58;;;;;;;6.32;1.80;;;19.80;99.90;;;;;;5043873;28;20051;-74
2023/06/20 04:09:26;;;;;;;3.78;2.17;;;19.80;99.90;;;;;;5052294;28;20017;-71
2023/06/20 04:11:52;;;;;;;4.07;1.95;;;19.80;99.90;;;;;;5049492;28;20739;-71
2023/06/20 04:14:17;;;;;;;5.07;2.00;;;19.80;99.90;;;;;;5047307;28;20071;-71
2023/06/20 04:16:44;;;;;;;7.38;2.22;;;19.80;99.90;;;;;;5032903;28;20115;-73
2023/06/20 04:19:10;;;;;;;6.25;2.10;;;19.80;99.90;;;;;;5034731;28;20013;-72
2023/06/20 04:21:36;;;;;;;3.25;2.03;;;19.80;99.90;;;;;;5047669;28;20037;-73
2023/06/20 04:24:01;;;;;;;3.88;2.10;;;19.80;99.90;;;;;;5032943;28;20043;-72
2023/06/20 04:26:29;;;;;;;5.57;2.03;;;19.80;99.90;;;;;;5035812;28;20116;-72
2023/06/20 04:28:56;;;;;;;4.70;1.77;;;19.80;99.90;;;;;;5040157;28;20021;-72
2023/06/20 04:31:21;;;;;;;3.78;2.03;;;19.80;99.90;;;;;;5032927;28;20032;-72
2023/06/20 04:33:47;;;;;;;5.07;2.10;;;19.90;99.90;;;;;;5035905;28;20025;-72
2023/06/20 04:36:13;;;;;;;5.30;2.60;;;20.00;99.90;;;;;;5051224;28;20018;-72
2023/06/20 04:38:43;;;;;;;3.55;2.30;;;20.00;99.90;;;;;;5048588;28;20036;-72
2023/06/20 04:41:09;;;;;;;3.80;2.08;;;20.10;99.90;;;;;;5030751;28;20024;-72
2023/06/20 04:43:35;;;;;;;5.03;2.33;;;20.10;99.90;;;;;;5053707;28;20514;-72
2023/06/20 04:46:02;;;;;;;5.15;2.30;;;20.20;99.90;;;;;;5045979;28;20025;-71
2023/06/20 04:48:35;;;;;;;3.20;1.98;;;20.20;99.90;;;;;;5027600;28;20034;-74
2023/06/20 04:51:02;;;;;;;7.60;2.75;;;20.30;99.90;;;;;;5043528;28;20212;-73
2023/06/20 04:53:28;;;;;;;4.88;2.08;;;20.30;99.90;;;;;;5048154;28;20075;-72
2023/06/20 04:55:54;;;;;;;3.58;2.10;;;20.40;99.90;;;;;;5047422;28;20387;-72
2023/06/20 04:58:20;;;;;;;5.25;2.53;;;20.50;99.90;;;;;;5053009;28;20075;-72
2023/06/20 05:00:46;;;;;;;5.28;2.10;;;20.60;99.90;;;;;;5051031;28;20108;-71
2023/06/20 05:03:12;;;;;;;3.70;2.40;;;20.70;99.90;;;;;;5052118;28;20100;-72
2023/06/20 05:05:39;;;;;;;5.28;2.65;;;20.70;99.90;;;;;;5031593;28;20415;-72
2023/06/20 05:08:05;;;;;;;3.92;2.80;;;20.80;99.90;;;;;;5034356;28;20017;-72
2023/06/20 05:10:31;;;;;;;6.60;2.60;;;20.90;99.90;;;;;;5047866;28;20029;-71
2023/06/20 05:12:56;;;;;;;6.25;2.63;;;21.00;99.90;;;;;;5028359;28;20071;-72
2023/06/20 05:15:25;;;;;;;6.55;2.80;;;21.10;99.90;;;;;;5044557;28;20487;-73
2023/06/20 05:17:53;;;;;;;5.85;2.35;;;21.20;99.90;;;;;;5041887;28;20025;-75
2023/06/20 05:20:20;;;;;;;4.50;2.90;;;21.30;99.90;;;;;;5041301;28;20120;-73
2023/06/20 05:22:45;;;;;;;4.47;2.50;;;21.40;99.90;;;;;;5027609;28;20407;-73
2023/06/20 05:25:11;;;;;;;9.82;2.72;;;21.60;99.90;;;;;;5034179;28;20119;-74
2023/06/20 05:27:37;;;;;;;3.33;2.50;;;21.60;99.90;;;;;;5049339;28;20033;-73
2023/06/20 05:30:04;;;;;;;4.05;3.00;;;21.70;99.90;;;;;;5043595;28;20513;-74
2023/06/20 05:32:30;;;;;;;4.35;2.83;;;21.80;99.90;;;;;;5045536;28;20025;-74
2023/06/20 05:34:56;;;;;;;5.47;2.60;;;21.90;99.90;;;;;;5041961;28;20048;-73
2023/06/20 05:37:21;;;;;;;5.97;2.67;;;21.90;99.90;;;;;;5030157;28;20063;-73
2023/06/20 05:39:47;;;;;;;5.00;2.80;;;22.00;99.90;;;;;;5046828;28;20033;-73
2023/06/20 05:42:12;;;;;;;10.65;3.38;;;22.10;99.90;;;;;;5045815;28;20017;-73
2023/06/20 05:44:38;;;;;;;6.53;2.65;;;22.10;99.90;;;;;;5049461;28;20125;-73
2023/06/20 05:47:04;;;;;;;7.82;3.20;;;22.10;99.90;;;;;;5044203;28;20025;-72
2023/06/20 05:49:31;;;;;;;5.43;2.95;;;22.10;99.90;;;;;;5041420;28;20074;-72
2023/06/20 05:51:57;;;;;;;4.85;2.88;;;22.20;99.90;;;;;;5040705;28;20172;-73
2023/06/20 05:54:23;;;;;;;7.07;3.45;;;22.30;99.90;;;;;;5043086;28;20035;-73
2023/06/20 05:56:50;;;;;;;8.50;3.50;;;22.40;99.90;;;;;;5027759;28;20059;-73
2023/06/20 05:59:15;;;;;;;5.55;3.58;;;22.50;99.90;;;;;;5043681;28;20017;-69
2023/06/20 06:01:41;;;;;;;7.03;2.85;;;22.60;99.90;;;;;;5024011;28;20032;-69
2023/06/20 06:04:07;;;;;;;6.13;2.90;;;22.60;99.90;;;;;;5049491;28;20096;-75
2023/06/20 06:06:33;;;;;;;11.77;3.78;;;22.80;99.90;;;;;;5059099;28;20116;-76
2023/06/20 06:08:59;;;;;;;6.70;3.30;;;22.90;99.90;;;;;;5077087;28;20127;-76
2023/06/20 06:11:27;;;;;;;6.25;3.10;;;23.00;99.90;;;;;;5077015;28;20021;-76
2023/06/20 06:13:58;;;;;;;11.95;4.22;;;23.00;99.90;;;;;;5077022;28;20024;-75
2023/06/20 06:16:26;;;;;;;5.43;3.50;;;23.10;99.90;;;;;;5058650;28;20111;-75
2023/06/20 06:18:51;;;;;;;4.50;3.67;;;23.20;99.90;;;;;;5075740;28;20522;-76
2023/06/20 06:21:17;;;;;;;6.30;3.63;;;23.20;99.90;;;;;;5058334;28;20034;-76
2023/06/20 06:23:47;;;;;;;8.52;3.78;;;23.40;99.90;;;;;;5038463;28;20499;-76
2023/06/20 06:26:13;;;;;;;7.65;3.85;;;23.40;99.90;;;;;;5056658;28;20021;-76
2023/06/20 06:28:39;;;;;;;6.25;3.70;;;23.50;99.90;;;;;;5054285;28;20051;-75
2023/06/20 06:31:11;;;;;;;6.40;3.80;;;23.60;99.90;;;;;;5056521;28;20068;-75
2023/06/20 06:33:37;;;;;;;6.53;4.05;;;23.60;99.90;;;;;;5039520;28;20025;-76
2023/06/20 06:36:04;;;;;;;8.30;3.78;;;23.80;99.90;;;;;;5056565;28;20423;-76
2023/06/20 06:38:40;;;;;;;7.05;3.65;;;23.80;99.90;;;;;;5056379;28;20021;-76
2023/06/20 06:41:09;;;;;;;4.50;3.60;;;23.90;99.90;;;;;;5037850;28;20021;-75
2023/06/20 06:43:34;;;;;;;9.90;3.90;;;24.00;99.90;;;;;;5054282;28;20111;-76
2023/06/20 06:46:00;;;;;;;7.05;3.70;;;24.10;99.90;;;;;;5060123;28;20025;-77
2023/06/20 06:48:26;;;;;;;6.35;3.78;;;24.20;99.90;;;;;;5060898;28;20479;-79
2023/06/20 06:50:51;;;;;;;8.68;3.67;;;24.30;99.70;;;;;;5054100;28;20399;-77
2023/06/20 06:53:17;;;;;;;8.57;3.47;;;24.40;99.40;;;;;;5053520;28;20024;-76
2023/06/20 06:55:49;;;;;;;7.35;4.00;;;24.40;99.10;;;;;;5047807;28;20095;-75
2023/06/20 06:58:15;;;;;;;10.25;3.50;;;24.40;98.80;;;;;;5042542;28;20033;-76
2023/06/20 07:00:40;;;;;;;7.38;3.75;;;24.50;98.80;;;;;;5051421;28;20032;-74
2023/06/20 07:03:06;;;;;;;9.27;3.95;;;24.60;98.90;;;;;;5053563;28;20100;-77
2023/06/20 07:05:32;;;;;;;9.75;4.00;;;24.60;99.20;;;;;;5048458;28;20025;-76
2023/06/20 07:07:57;;;;;;;5.15;3.88;;;24.70;99.00;;;;;;5053339;28;20476;-77
2023/06/20 07:10:23;;;;;;;11.57;4.20;;;24.70;99.60;;;;;;5051339;28;20043;-75
2023/06/20 07:12:48;;;;;;;7.30;3.63;;;24.80;99.60;;;;;;5036674;28;20025;-75
2023/06/20 07:15:14;;;;;;;5.75;3.20;;;24.80;99.00;;;;;;5053353;28;20029;-76
2023/06/20 07:17:40;;;;;;;7.55;3.63;;;24.80;98.80;;;;;;5053794;28;20514;-78
2023/06/20 07:20:08;;;;;;;5.30;3.92;;;24.90;99.20;;;;;;5053650;28;20029;-77
2023/06/20 07:22:33;;;;;;;5.22;4.07;;;24.90;99.20;;;;;;5053897;28;20021;-77
2023/06/20 07:24:59;;;;;;;7.35;3.88;;;24.90;98.50;;;;;;5054153;28;20092;-77
2023/06/20 07:27:24;;;;;;;5.75;3.88;;;25.00;98.50;;;;;;5040062;28;20027;-76
2023/06/20 07:29:50;;;;;;;9.25;3.95;;;25.00;98.40;;;;;;5073110;28;20024;-77
2023/06/20 07:32:16;;;;;;;6.65;3.60;;;25.10;98.20;;;;;;5073907;28;20056;-77
2023/06/20 07:34:42;;;;;;;10.15;4.57;;;25.10;98.10;;;;;;5043101;28;20029;-76
2023/06/20 07:37:07;;;;;;;5.63;4.20;;;25.20;98.00;;;;;;5035110;28;20028;-76
2023/06/20 07:39:33;;;;;;;9.73;4.40;;;25.20;97.60;;;;;;5069662;28;20024;-75
2023/06/20 07:41:58;;;;;;;9.35;4.30;;;25.20;97.60;;;;;;5055522;28;20024;-76
2023/06/20 07:44:24;;;;;;;8.13;4.18;;;25.30;97.70;;;;;;5071839;22;20529;-77
2023/06/20 07:46:50;;;;;;;9.07;4.35;;;25.30;97.60;;;;;;5050950;28;20033;-78
2023/06/20 07:49:15;;;;;;;11.20;4.18;;;25.30;97.40;;;;;;5049957;28;20475;-78
2023/06/20 07:51:42;;;;;;;6.93;4.43;;;25.30;97.50;;;;;;5052050;28;20029;-78
2023/06/20 07:54:08;;;;;;;7.10;4.75;;;25.50;98.00;;;;;;5055324;28;20459;-77
2023/06/20 07:56:33;;;;;;;7.53;4.57;;;25.50;97.60;;;;;;5033825;28;20036;-76
2023/06/20 07:58:59;;;;;;;10.88;4.78;;;25.60;97.90;;;;;;5050537;28;20074;-77
2023/06/20 08:01:25;;;;;;;8.15;4.82;;;25.60;97.80;;;;;;5051613;28;20027;-77
2023/06/20 08:03:50;;;;;;;8.07;4.55;;;25.70;97.80;;;;;;5050442;28;20080;-77
2023/06/20 08:06:16;;;;;;;9.35;4.85;;;25.80;97.60;;;;;;5050451;28;20021;-77
2023/06/20 08:08:41;;;;;;;7.13;4.80;;;25.80;97.30;;;;;;5050507;28;20036;-77
2023/06/20 08:11:07;;;;;;;8.35;5.07;;;25.80;97.20;;;;;;5032529;28;20036;-77
2023/06/20 08:13:33;;;;;;;8.55;5.28;;;25.90;97.30;;;;;;5052374;28;20049;-77
2023/06/20 08:15:58;;;;;;;7.28;4.40;;;25.90;96.90;;;;;;5054664;28;20031;-77
2023/06/20 08:18:26;;;;;;;7.82;4.53;;;26.00;96.90;;;;;;5048641;28;20072;-77
2023/06/20 08:20:52;;;;;;;6.38;4.10;;;26.00;96.60;;;;;;5031451;28;20514;-77
2023/06/20 08:23:25;;;;;;;11.63;4.47;;;26.10;96.10;;;;;;5031626;28;20010;-77
2023/06/20 08:25:53;;;;;;;9.38;4.60;;;26.10;96.00;;;;;;5051250;28;20020;-78
2023/06/20 08:28:19;;;;;;;6.10;4.10;;;26.20;96.00;;;;;;5051401;28;20089;-77
2023/06/20 08:30:45;;;;;;;8.32;4.68;;;26.30;96.30;;;;;;5050347;28;20482;-77
2023/06/20 08:33:10;;;;;;;7.85;5.00;;;26.40;96.30;;;;;;5049686;28;20243;-78
2023/06/20 08:35:36;;;;;;;7.07;4.35;;;26.40;96.00;;;;;;5056860;28;20028;-77
2023/06/20 08:38:01;;;;;;;7.78;4.00;;;26.50;95.90;;;;;;5049359;28;20040;-77
2023/06/20 08:40:28;;;;;;;6.47;4.00;;;26.50;95.50;;;;;;5029722;28;20075;-77
2023/06/20 08:42:58;;;;;;;8.15;4.72;;;26.60;95.70;;;;;;5036276;28;20021;-77
2023/06/20 08:45:23;;;;;;;10.75;4.47;;;26.60;95.20;;;;;;5045393;28;20668;-77
2023/06/20 08:47:49;;;;;;;8.55;4.78;;;26.70;95.20;;;;;;5047625;28;20103;-77
2023/06/20 08:50:15;;;;;;;6.15;3.75;;;26.80;94.90;;;;;;5044360;28;20032;-77
2023/06/20 08:52:47;;;;;;;10.57;5.28;;;26.90;94.70;;;;;;5030075;28;20116;-77
2023/06/20 08:55:16;;;;;;;6.45;4.50;;;26.90;94.40;;;;;;5050016;28;20044;-76
2023/06/20 08:57:45;;;;;;;8.05;4.55;;;27.00;94.30;;;;;;5025987;28;20032;-76
2023/06/20 09:00:20;;;;;;;10.20;4.40;;;27.10;94.30;;;;;;5029386;28;20017;-76
2023/06/20 09:02:49;;;;;;;5.93;4.30;;;27.10;93.70;;;;;;5046556;28;20028;-76
2023/06/20 09:05:15;;;;;;;8.20;4.97;;;27.20;94.40;;;;;;5046691;28;20029;-76
2023/06/20 09:07:42;;;;;;;8.68;4.82;;;27.20;94.70;;;;;;5047717;28;21144;-76
2023/06/20 09:10:11;;;;;;;7.80;4.53;;;27.30;94.50;;;;;;5046393;28;20045;-76
2023/06/20 09:12:53;;;;;;;6.32;4.32;;;27.30;94.10;;;;;;5043488;28;20068;-77
2023/06/20 09:15:23;;;;;;;8.65;4.15;;;27.30;93.90;;;;;;5038766;28;20419;-77
2023/06/20 09:18:00;;;;;;;9.70;4.57;;;27.30;93.80;;;;;;5045107;28;20933;-76
2023/06/20 09:20:28;;;;;;;6.25;4.43;;;27.30;93.80;;;;;;5049335;28;20044;-76
2023/06/20 09:22:54;;;;;;;4.85;3.30;;;27.30;93.80;;;;;;5045591;28;20541;-76
2023/06/20 09:25:22;;;;;;;9.13;5.47;;;27.30;93.70;;;;;;5042685;28;20021;-77
2023/06/20 09:27:48;;;;;;;8.82;5.25;;;27.40;93.80;;;;;;5040982;28;20029;-77
2023/06/20 09:30:14;;;;;;;7.40;4.68;;;27.40;93.60;;;;;;5045995;28;20025;-77
2023/06/20 09:32:41;;;;;;;6.78;4.65;;;27.40;93.30;;;;;;5041245;28;20600;-77
2023/06/20 09:35:08;;;;;;;8.48;4.88;;;27.40;92.10;;;;;;5045200;28;20057;-78
2023/06/20 09:37:37;;;;;;;5.82;4.55;;;27.40;92.00;;;;;;5037675;28;20055;-77
2023/06/20 09:40:12;;;;;;;7.38;3.95;;;27.50;92.20;;;;;;5039952;28;20025;-77
2023/06/20 09:42:39;;;;;;;8.50;4.40;;;27.60;90.30;;;;;;5027446;28;20027;-77
2023/06/20 09:45:09;;;;;;;7.57;4.15;;;27.60;90.50;;;;;;5032279;28;20106;-77
2023/06/20 09:47:37;;;;;;;8.50;3.75;;;27.70;88.40;;;;;;5047623;28;20028;-77
2023/06/20 09:50:07;;;;;;;5.20;3.92;;;27.80;85.20;;;;;;5044866;28;20017;-79
2023/06/20 09:52:43;;;;;;;6.15;4.20;;;27.90;83.00;;;;;;5048831;28;20036;-80
2023/06/20 09:55:14;;;;;;;9.27;4.15;;;27.90;81.80;;;;;;5031749;28;20025;-79
2023/06/20 09:57:46;;;;;;;6.43;4.68;;;28.00;78.70;;;;;;5051305;28;20143;-78
2023/06/20 10:00:14;;;;;;;7.13;3.93;;;28.00;79.30;;;;;;5050198;28;20021;-79
2023/06/20 10:02:47;;;;;;;5.63;4.03;;;28.10;79.70;;;;;;5044366;28;20033;-77
2023/06/20 10:05:15;;;;;;;5.75;4.10;;;28.20;80.40;;;;;;5037673;28;20364;-76
2023/06/20 10:07:42;;;;;;;5.55;4.10;;;28.30;80.80;;;;;;5041490;28;20044;-77
2023/06/20 10:10:08;;;;;;;6.57;4.07;;;28.30;81.10;;;;;;5043457;28;20060;-77
2023/06/20 10:12:35;;;;;;;7.32;3.80;;;28.40;79.90;;;;;;5043721;28;20025;-78
2023/06/20 10:15:03;;;;;;;7.90;4.28;;;28.50;78.50;;;;;;5038955;28;20072;-78
2023/06/20 10:17:35;;;;;;;8.85;4.32;;;28.50;77.80;;;;;;5045272;28;20053;-78
2023/06/20 10:20:05;;;;;;;7.65;4.80;;;28.60;78.40;;;;;;5038358;28;20033;-76
2023/06/20 10:22:32;;;;;;;7.65;4.13;;;28.60;78.20;;;;;;5040544;28;20040;-77
2023/06/20 10:25:00;;;;;;;7.35;4.68;;;28.60;78.20;;;;;;5040760;28;20484;-76
2023/06/20 10:27:27;;;;;;;7.68;4.07;;;28.70;78.40;;;;;;5043781;28;20025;-77
2023/06/20 10:29:53;;;;;;;8.13;4.15;;;28.80;78.00;;;;;;5049351;28;20049;-77
2023/06/20 10:32:19;;;;;;;10.45;4.85;;;28.80;77.50;;;;;;5030695;28;20056;-78
2023/06/20 10:34:45;;;;;;;8.48;4.80;;;28.90;77.20;;;;;;5029106;28;20475;-76
2023/06/20 10:37:14;;;;;;;7.53;4.15;;;28.90;76.80;;;;;;5026920;28;20039;-76
2023/06/20 10:39:54;;;;;;;7.22;4.47;;;29.00;75.90;;;;;;5020141;28;20177;-77
2023/06/20 10:42:36;;;;;;;4.43;3.90;;;29.10;76.30;;;;;;5030497;28;20032;-78
2023/06/20 10:45:18;;;;;;;5.32;4.20;;;29.10;75.20;;;;;;5025908;28;20044;-78
2023/06/20 10:47:45;;;;;;;7.25;4.80;;;29.10;73.80;;;;;;5050625;28;20088;-78
2023/06/20 10:50:11;;;;;;;10.32;4.22;;;29.10;73.20;;;;;;5042591;28;20107;-77
2023/06/20 10:52:37;;;;;;;7.45;4.38;;;29.10;72.90;;;;;;5052706;28;20044;-78
2023/06/20 10:55:07;;;;;;;7.60;4.30;;;29.10;72.20;;;;;;5051778;28;21315;-79
2023/06/20 10:57:35;;;;;;;6.63;4.00;;;29.10;71.40;;;;;;5034694;28;20082;-79
2023/06/20 11:00:12;;;;;;;5.68;3.88;;;29.20;71.60;;;;;;5031938;28;20467;-78
2023/06/20 11:02:38;;;;;;;8.80;4.65;;;29.30;71.20;;;;;;5051595;28;20082;-78
2023/06/20 11:05:06;;;;;;;7.57;4.20;;;29.40;71.50;;;;;;5051094;28;20029;-79
2023/06/20 11:07:31;;;;;;;6.88;4.53;;;29.40;71.70;;;;;;5052416;28;20040;-77
2023/06/20 11:09:57;;;;;;;8.07;4.63;;;29.50;72.00;;;;;;5045966;28;20090;-78
2023/06/20 11:12:23;;;;;;;9.55;4.53;;;29.50;69.70;;;;;;5048842;28;20037;-77
2023/06/20 11:14:48;;;;;;;11.60;4.55;;;29.50;69.00;;;;;;5028204;28;20522;-78
2023/06/20 11:17:14;;;;;;;6.68;4.10;;;29.60;69.00;;;;;;5047930;28;20029;-78
2023/06/20 11:19:40;;;;;;;8.65;4.35;;;29.60;68.70;;;;;;5029702;28;20052;-78
2023/06/20 11:22:06;;;;;;;8.05;3.95;;;29.70;69.50;;;;;;5052979;28;20017;-78
2023/06/20 11:24:35;;;;;;;10.30;4.28;;;29.70;69.20;;;;;;5040240;28;20035;-78
2023/06/20 11:27:14;;;;;;;10.48;4.13;;;29.70;67.20;;;;;;5045881;28;20032;-77
2023/06/20 11:29:39;;;;;;;6.68;4.70;;;29.80;66.70;;;;;;5049607;28;21128;-77
2023/06/20 11:32:11;;;;;;;6.18;4.05;;;29.90;66.80;;;;;;5045288;28;20124;-78
2023/06/20 11:34:59;;;;;;;8.60;4.55;;;30.00;67.40;;;;;;5040920;28;20478;-77
2023/06/20 11:37:25;;;;;;;9.48;5.05;;;30.00;67.70;;;;;;5025161;28;20049;-78
2023/06/20 11:39:54;;;;;;;10.93;4.40;;;30.00;67.40;;;;;;5032658;28;20032;-79
2023/06/20 11:42:20;;;;;;;8.40;5.20;;;30.00;67.80;;;;;;5027453;28;20523;-77
2023/06/20 11:44:45;;;;;;;6.88;4.68;;;30.00;68.00;;;;;;5042593;28;20036;-78
2023/06/20 11:47:11;;;;;;;7.97;4.40;;;30.00;67.20;;;;;;5041345;28;20068;-77
2023/06/20 11:49:40;;;;;;;8.77;4.22;;;30.00;66.80;;;;;;5044929;28;20037;-78
2023/06/20 11:52:07;;;;;;;6.63;3.90;;;30.10;65.90;;;;;;5040586;28;20035;-77
2023/06/20 11:54:51;;;;;;;5.38;4.07;;;30.10;65.80;;;;;;5038884;28;20039;-78
2023/06/20 11:57:27;;;;;;;11.60;4.57;;;30.30;65.50;;;;;;5042063;28;20032;-77
2023/06/20 11:59:59;;;;;;;6.35;4.55;;;30.30;65.90;;;;;;5042052;28;20030;-76
2023/06/20 12:02:26;;;;;;;13.27;4.85;;;30.30;65.00;;;;;;5044009;28;20025;-78
2023/06/20 12:04:58;;;;;;;10.38;4.60;;;30.40;65.30;;;;;;5040154;28;20080;-77
2023/06/20 12:07:26;;;;;;;7.20;4.65;;;30.40;65.20;;;;;;5049781;28;20029;-78
2023/06/20 12:09:52;;;;;;;10.75;5.00;;;30.40;66.60;;;;;;5036150;28;20032;-77
2023/06/20 12:12:18;;;;;;;9.10;4.25;;;30.40;65.30;;;;;;5045728;28;20025;-78
2023/06/20 12:14:47;;;;;;;9.98;5.22;;;30.40;65.10;;;;;;5041762;28;20107;-77
2023/06/20 12:17:13;;;;;;;9.85;5.30;;;30.30;65.30;;;;;;5038080;28;20096;-77
2023/06/20 12:19:51;;;;;;;9.48;4.63;;;30.30;65.50;;;;;;5045988;28;20147;-77
2023/06/20 12:22:17;;;;;;;8.18;5.28;;;30.30;65.40;;;;;;5049980;28;20095;-78
2023/06/20 12:24:42;;;;;;;8.57;5.18;;;30.30;65.80;;;;;;5041572;28;20093;-76
2023/06/20 12:27:08;;;;;;;9.27;5.07;;;30.30;66.00;;;;;;5042315;28;20021;-77
2023/06/20 12:29:33;;;;;;;10.85;5.88;;;30.30;65.50;;;;;;5042278;28;20048;-77
2023/06/20 12:31:59;;;;;;;11.60;5.20;;;30.30;65.60;;;;;;5042324;28;20449;-78
2023/06/20 12:34:25;;;;;;;9.40;4.65;;;30.20;65.60;;;;;;5046277;28;20084;-78
2023/06/20 12:36:51;;;;;;;7.97;4.68;;;30.10;65.40;;;;;;5050329;28;20024;-78
2023/06/20 12:39:17;;;;;;;8.93;5.10;;;30.10;66.10;;;;;;5043483;28;20068;-79
2023/06/20 12:41:42;;;;;;;8.18;4.65;;;30.10;66.00;;;;;;5030627;28;20050;-78
2023/06/20 12:44:08;;;;;;;10.25;4.85;;;30.10;66.10;;;;;;5045372;28;20501;-79
2023/06/20 12:46:33;;;;;;;8.90;4.50;;;30.10;66.50;;;;;;5042750;28;20112;-79
2023/06/20 12:48:59;;;;;;;7.05;4.50;;;30.10;66.40;;;;;;5019908;28;20045;-80
2023/06/20 12:51:25;;;;;;;12.40;4.43;;;30.10;66.10;;;;;;5040066;28;20071;-75